Ms Folla 2 — LLPD — position and weather

sailwx.info

Track history (hours):
 
Tides and Currents Weather Stations Pressure Air Temp Water Temp Dewpoint Dewpoint Depression Visibility Wind Speed Wind Dir Waves Ship Positions

Ms Folla 2

Last reported at 2017-Feb-25 20:33 UTC. Time now 2017-Feb-25 20:50 UTC.
Position N 69°53' E 019°52'.

Length 52 m; draft 5.5 m.

Type: Cargo ship. MMSI: 258253000.

Date/timePositionNaut miles runAvg speedWind from/ knotsBaromVisibWave heightAir tempDewpointWater temp
2017-Feb-25 20:33N 69°53' E 019°52'1111.3
2017-Feb-25 19:33N 69°48' E 019°22'1110.7
2017-Feb-25 18:33N 69°41' E 018°59'3 3.5
2017-Feb-25 17:33N 69°37' E 018°55'1010.4
2017-Feb-25 16:33N 69°32' E 018°31'1010.3
2017-Feb-25 15:32N 69°25' E 018°07'1110.8
2017-Feb-25 14:33N 69°15' E 017°58'1 1.4
2017-Feb-25 13:33N 69°14' E 017°59'8 8.1
2017-Feb-25 12:33N 69°08' E 017°43'1111.1
2017-Feb-25 11:33N 68°58' E 017°27'7 6.8
2017-Feb-25 10:33N 68°54' E 017°43'8 7.6
2017-Feb-25 09:33N 68°50' E 017°26'8 7.6
2017-Feb-25 08:33N 68°46' E 017°09'5 4.9
2017-Feb-25 07:33N 68°44' E 016°57'10 9.5
2017-Feb-25 06:33N 68°48' E 016°33'4 3.9
2017-Feb-25 05:33N 68°51' E 016°31'8 7.7
2017-Feb-25 04:33N 68°52' E 016°10'6 6.3
2017-Feb-25 03:32N 68°46' E 016°12'6 6.2
2017-Feb-25 02:33N 68°51' E 016°03'10 9.8
2017-Feb-25 01:33N 68°59' E 015°46'8 7.8
2017-Feb-25 00:33N 68°53' E 015°32'1010.4
2017-Feb-24 23:33N 68°43' E 015°26'6 6.0
2017-Feb-24 22:33N 68°37' E 015°18'10 9.7
2017-Feb-24 21:33N 68°28' E 015°12'1211.6
2017-Feb-24 20:33N 68°17' E 014°58'9 9.1
2017-Feb-24 19:33N 68°13' E 014°36'1 1.0
2017-Feb-24 18:32N 68°14' E 014°35'5 5.1
2017-Feb-24 17:33N 68°09' E 014°34'1110.8
2017-Feb-24 16:33N 67°59' E 014°41'9 9.3
2017-Feb-24 15:33N 67°49' E 014°36'7 6.7
2017-Feb-24 14:33N 67°43' E 014°42'1010.0
2017-Feb-24 13:33N 67°33' E 014°43'10 9.6
2017-Feb-24 12:33N 67°25' E 014°32'8 8.1
2017-Feb-24 11:33N 67°17' E 014°23'0 0.3
2017-Feb-24 10:33N 67°18' E 014°24'6 5.5
2017-Feb-24 09:33N 67°14' E 014°13'9 9.3
2017-Feb-24 08:33N 67°07' E 013°59'10 9.9
2017-Feb-24 07:33N 66°59' E 013°41'9 8.5
2017-Feb-24 06:33N 66°54' E 013°25'9 9.4
2017-Feb-24 05:33N 66°45' E 013°13'4 4.0
2017-Feb-24 04:33N 66°41' E 013°13'10 9.6
2017-Feb-24 03:33N 66°33' E 013°01'10 9.8
2017-Feb-24 02:33N 66°23' E 012°58'1110.6
2017-Feb-24 01:33N 66°13' E 012°53'1010.4
2017-Feb-24 00:33N 66°04' E 012°39'6 5.7
2017-Feb-23 23:33N 65°60' E 012°31'1010.4
2017-Feb-23 22:33N 65°50' E 012°22'1110.6
2017-Feb-23 21:33N 65°40' E 012°16'1110.5
2017-Feb-23 20:33N 65°29' E 012°12'1010.0
2017-Feb-23 19:33N 65°20' E 012°02'1110.7
2017-Feb-23 18:33N 65°10' E 011°51'1010.1
2017-Feb-23 17:33N 65°02' E 011°39'1010.5
2017-Feb-23 16:33N 64°54' E 011°22'9 9.1
2017-Feb-23 15:33N 64°48' E 011°07'1010.0
2017-Feb-23 14:33N 64°38' E 011°10'1010.0
2017-Feb-23 13:33N 64°31' E 011°27'4 3.9
2017-Feb-23 12:32N 64°28' E 011°30'0 0.0
2017-Feb-23 11:33N 64°28' E 011°30'0 0.0
2017-Feb-23 10:33N 64°28' E 011°30'0 0.0
2017-Feb-23 09:33N 64°28' E 011°30'0 0.0
2017-Feb-23 08:33N 64°28' E 011°30'0 0.0
2017-Feb-23 07:33N 64°28' E 011°30'0 0.0
2017-Feb-23 06:33N 64°28' E 011°30'0 0.0
2017-Feb-23 05:33N 64°28' E 011°30'0 0.0
2017-Feb-23 04:33N 64°28' E 011°30'0 0.0
2017-Feb-23 03:33N 64°28' E 011°30'0 0.0
2017-Feb-23 02:33N 64°28' E 011°30'0 0.0
2017-Feb-23 01:33N 64°28' E 011°30'0 0.0
2017-Feb-23 00:33N 64°28' E 011°30'0 0.0
2017-Feb-22 23:33N 64°28' E 011°30'0 0.0
2017-Feb-22 22:33N 64°28' E 011°30'0 0.0
2017-Feb-22 21:33N 64°28' E 011°30'0 0.0
2017-Feb-22 20:33N 64°28' E 011°30'0 0.0
2017-Feb-22 19:33N 64°28' E 011°30'0 0.0
2017-Feb-22 18:33N 64°28' E 011°30'0 0.0
2017-Feb-22 17:33N 64°28' E 011°30'0 0.0
2017-Feb-22 16:33N 64°28' E 011°30'0 0.0
2017-Feb-22 15:33N 64°28' E 011°30'0 0.0
2017-Feb-22 14:33N 64°28' E 011°30'0 0.0
2017-Feb-22 13:33N 64°28' E 011°30'0 0.0
2017-Feb-22 12:33N 64°28' E 011°30'0 0.0
2017-Feb-22 11:33N 64°28' E 011°30'0 0.0
2017-Feb-22 10:33N 64°28' E 011°30'0 0.0
2017-Feb-22 09:33N 64°28' E 011°30'0 0.0
2017-Feb-22 08:33N 64°28' E 011°30'0 0.0
2017-Feb-22 07:33N 64°28' E 011°30'0 0.0
2017-Feb-22 06:32N 64°28' E 011°30'0 0.0
2017-Feb-22 05:33N 64°28' E 011°30'0 0.0
2017-Feb-22 04:33N 64°28' E 011°30'0 0.0
2017-Feb-22 03:33N 64°28' E 011°30'0 0.0
2017-Feb-22 02:33N 64°28' E 011°30'0 0.0
2017-Feb-22 01:33N 64°28' E 011°30'0 0.0
2017-Feb-22 00:32N 64°28' E 011°30'0 0.0
2017-Feb-21 23:33N 64°28' E 011°30'0 0.0
2017-Feb-21 22:33N 64°28' E 011°30'0 0.0
2017-Feb-21 21:33N 64°28' E 011°30'5 4.9
2017-Feb-21 20:33N 64°29' E 011°19'10 9.5
2017-Feb-21 19:33N 64°35' E 011°03'5 5.4
2017-Feb-21 18:33N 64°32' E 010°52'0 0.0
2017-Feb-21 17:33N 64°32' E 010°52'7 7.1
2017-Feb-21 16:33N 64°38' E 011°01'1010.1
2017-Feb-21 15:33N 64°48' E 011°07'5 4.8
2017-Feb-21 14:33N 64°52' E 011°15'1 1.0
2017-Feb-21 13:33N 64°52' E 011°17'4 3.7
2017-Feb-21 12:33N 64°54' E 011°22'1111.2
2017-Feb-21 11:33N 65°02' E 011°41'1111.3
2017-Feb-21 10:33N 65°12' E 011°53'1111.3
2017-Feb-21 09:33N 65°22' E 012°05'1010.3
2017-Feb-21 08:33N 65°32' E 012°12'1111.4
2017-Feb-21 07:33N 65°44' E 012°17'1111.2
2017-Feb-21 06:33N 65°55' E 012°22'1111.0
2017-Feb-21 05:33N 66°04' E 012°38'1111.5
2017-Feb-21 04:33N 66°13' E 012°53'1111.1
2017-Feb-21 03:33N 66°24' E 012°58'1010.4
2017-Feb-21 02:33N 66°34' E 013°05'1111.1
2017-Feb-21 01:33N 66°45' E 013°13'9 9.3
2017-Feb-21 00:33N 66°50' E 013°33'9 9.2
2017-Feb-20 23:33N 66°59' E 013°35'1111.4
2017-Feb-20 22:33N 67°06' E 013°57'1211.5
2017-Feb-20 21:33N 67°15' E 014°15'6 5.9
2017-Feb-20 20:33N 67°20' E 014°23'1211.7
2017-Feb-20 19:33N 67°32' E 014°30'1211.5
2017-Feb-20 18:33N 67°43' E 014°31'1110.8
2017-Feb-20 17:33N 67°53' E 014°44'1111.1
2017-Feb-20 16:33N 68°01' E 015°02'1111.0
2017-Feb-20 15:32N 68°09' E 015°23'1111.3
2017-Feb-20 14:33N 68°16' E 015°47'1111.2
2017-Feb-20 13:32N 68°23' E 016°12'1111.2
2017-Feb-20 12:32N 68°26' E 016°41'1111.2
2017-Feb-20 11:33N 68°26' E 017°11'3 3.3
2017-Feb-20 10:33N 68°26' E 017°21'1111.2
2017-Feb-20 09:32N 68°26' E 016°50'1111.1
2017-Feb-20 08:32N 68°24' E 016°20'7 6.9
2017-Feb-20 07:33N 68°26' E 016°02'1010.0
2017-Feb-20 06:32N 68°34' E 016°21'5 5.3
2017-Feb-20 05:33N 68°36' E 016°33'1110.9
2017-Feb-20 04:33N 68°46' E 016°48'1111.1
2017-Feb-20 03:33N 68°55' E 017°04'1111.3
2017-Feb-20 02:33N 69°04' E 017°22'1111.2
2017-Feb-20 01:33N 69°09' E 017°50'9 9.2
2017-Feb-20 00:33N 69°18' E 017°58'1110.4
2017-Feb-19 23:33N 69°28' E 018°08'1211.5
2017-Feb-19 22:33N 69°33' E 018°38'1111.1
2017-Feb-19 21:33N 69°40' E 019°01'1010.5
2017-Feb-19 20:33N 69°48' E 019°22'1111.2
2017-Feb-19 19:33N 69°53' E 019°51'1110.9
2017-Feb-19 18:33N 69°59' E 020°17'1111.0
2017-Feb-19 17:33N 70°03' E 020°47'1110.7
2017-Feb-19 16:33N 70°11' E 021°05'1110.9
2017-Feb-19 15:33N 70°19' E 021°28'9 9.4
2017-Feb-19 14:33N 70°22' E 021°54'1211.7
2017-Feb-19 13:33N 70°17' E 022°25'1211.8
2017-Feb-19 12:33N 70°12' E 022°58'1211.7
2017-Feb-19 11:33N 70°02' E 023°14'4 3.8
2017-Feb-19 10:33N 69°59' E 023°20'1010.4
2017-Feb-19 09:33N 70°08' E 023°04'8 8.4
2017-Feb-19 08:33N 70°14' E 022°47'8 8.4
2017-Feb-19 07:33N 70°16' E 022°23'2 1.8
2017-Feb-19 06:33N 70°14' E 022°21'0 0.0
2017-Feb-19 05:33N 70°14' E 022°21'0 0.0
2017-Feb-19 04:33N 70°14' E 022°21'0 0.0
2017-Feb-19 03:33N 70°14' E 022°21'0 0.0
2017-Feb-19 02:33N 70°14' E 022°21'7 7.5
2017-Feb-19 01:33N 70°20' E 022°05'10 9.6
2017-Feb-19 00:33N 70°23' E 021°39'1010.4
2017-Feb-18 23:33N 70°16' E 021°16'1010.2
2017-Feb-18 22:32N 70°07' E 020°60'1010.1
2017-Feb-18 21:33N 70°01' E 020°36'1010.2
2017-Feb-18 20:33N 69°57' E 020°09'1110.5
2017-Feb-18 19:33N 69°51' E 019°44'1010.5
2017-Feb-18 18:33N 69°47' E 019°16'9 8.7
2017-Feb-18 17:33N 69°41' E 018°59'1 0.9
2017-Feb-18 16:33N 69°40' E 018°59'1211.4
2017-Feb-18 15:32N 69°32' E 018°34'1111.0
2017-Feb-18 14:33N 69°27' E 018°07'1110.8
2017-Feb-18 13:33N 69°16' E 017°58'3 3.1
2017-Feb-18 12:33N 69°13' E 017°60'1010.1
2017-Feb-18 11:33N 69°07' E 017°38'1111.2
2017-Feb-18 10:33N 68°56' E 017°27'10 9.7
2017-Feb-18 09:33N 68°47' E 017°16'6 5.7
2017-Feb-18 08:33N 68°44' E 017°02'1010.0
2017-Feb-18 07:33N 68°47' E 016°36'3 2.6
2017-Feb-18 06:33N 68°49' E 016°36'1110.8
2017-Feb-18 05:33N 68°56' E 016°12'1111.1
2017-Feb-18 04:32N 68°58' E 015°42'8 8.3
2017-Feb-18 03:34N 68°51' E 015°30'10 9.5
2017-Feb-18 02:33N 68°42' E 015°25'0 0.0
2017-Feb-18 01:32N 68°42' E 015°25'7 7.3
2017-Feb-18 00:33N 68°36' E 015°14'10 9.8
2017-Feb-17 23:34N 68°26' E 015°10'1010.3
2017-Feb-17 22:32N 68°17' E 014°58'9 9.2
2017-Feb-17 21:33N 68°13' E 014°35'1 1.2
2017-Feb-17 20:33N 68°13' E 014°33'1111.0
2017-Feb-17 19:33N 68°07' E 014°07'1111.2
2017-Feb-17 18:33N 68°04' E 013°39'4 4.2
2017-Feb-17 17:33N 68°08' E 013°34'1 0.9
2017-Feb-17 16:33N 68°08' E 013°37'4 4.2
2017-Feb-17 15:33N 68°04' E 013°32'5 5.2
2017-Feb-17 14:33N 67°59' E 013°33'1110.9
2017-Feb-17 13:33N 67°48' E 013°26'1110.6
2017-Feb-17 12:33N 67°38' E 013°20'1110.7
2017-Feb-17 11:33N 67°28' E 013°11'1110.9
2017-Feb-17 10:33N 67°17' E 013°04'1110.7
2017-Feb-17 09:33N 67°07' E 012°56'1110.8
2017-Feb-17 08:33N 66°56' E 012°50'1110.6
2017-Feb-17 07:33N 66°46' E 012°49'1010.4
2017-Feb-17 06:33N 66°36' E 012°41'6 6.5
2017-Feb-17 05:33N 66°30' E 012°46'6 6.4
2017-Feb-17 04:33N 66°23' E 012°47'1010.2
2017-Feb-17 03:33N 66°14' E 012°40'1111.3
2017-Feb-17 02:34N 66°02' E 012°38'5 4.7
2017-Feb-17 01:33N 65°59' E 012°30'1111.5
2017-Feb-17 00:33N 65°48' E 012°21'1211.7
2017-Feb-16 23:33N 65°37' E 012°14'1110.6
2017-Feb-16 22:33N 65°27' E 012°10'1111.2
2017-Feb-16 21:33N 65°17' E 011°58'1111.1
2017-Feb-16 20:33N 65°06' E 011°48'1110.8
2017-Feb-16 19:34N 64°58' E 011°33'1010.0
2017-Feb-16 18:33N 64°52' E 011°14'0 0.0
2017-Feb-16 17:33N 64°52' E 011°14'9 8.5
2017-Feb-16 16:32N 64°43' E 011°06'1010.5
2017-Feb-16 15:33N 64°35' E 011°19'9 8.6
2017-Feb-16 14:33N 64°27' E 011°30'0 0.2
2017-Feb-16 13:33N 64°28' E 011°30'0 0.0
2017-Feb-16 12:34N 64°28' E 011°30'0 0.0
2017-Feb-16 11:33N 64°28' E 011°30'0 0.0
2017-Feb-16 10:33N 64°28' E 011°30'0 0.0
2017-Feb-16 09:33N 64°28' E 011°30'0 0.0
2017-Feb-16 08:32N 64°28' E 011°30'0 0.0
2017-Feb-16 07:33N 64°28' E 011°30'0 0.0
2017-Feb-16 06:33N 64°28' E 011°30'0 0.0
2017-Feb-16 05:33N 64°28' E 011°30'0 0.0
2017-Feb-16 04:33N 64°28' E 011°30'0 0.0
2017-Feb-16 03:33N 64°28' E 011°30'0 0.0
2017-Feb-16 02:33N 64°28' E 011°30'0 0.0
2017-Feb-16 01:32N 64°28' E 011°30'0 0.0
2017-Feb-16 00:33N 64°28' E 011°30'0 0.0
2017-Feb-15 23:33N 64°28' E 011°30'0 0.0
2017-Feb-15 22:32N 64°28' E 011°30'0 0.0
2017-Feb-15 21:32N 64°28' E 011°30'0 0.0
2017-Feb-15 20:33N 64°28' E 011°30'  
Track history (hours):
 
Tides and Currents Weather Stations Pressure Air Temp Water Temp Dewpoint Dewpoint Depression Visibility Wind Speed Wind Dir Waves Ship Positions

Ms Folla 2

Last reported at 2017-Feb-25 20:33 UTC. Time now 2017-Feb-25 20:50 UTC.
Position N 69°53' E 019°52'.

Length 52 m; draft 5.5 m.

Type: Cargo ship. MMSI: 258253000.

Date/timePositionNaut miles runAvg speedWind from/ knotsBaromVisibWave heightAir tempDewpointWater temp
2017-Feb-25 20:33N 69°53' E 019°52'1111.3
2017-Feb-25 19:33N 69°48' E 019°22'1110.7
2017-Feb-25 18:33N 69°41' E 018°59'3 3.5
2017-Feb-25 17:33N 69°37' E 018°55'1010.4
2017-Feb-25 16:33N 69°32' E 018°31'1010.3
2017-Feb-25 15:32N 69°25' E 018°07'1110.8
2017-Feb-25 14:33N 69°15' E 017°58'1 1.4
2017-Feb-25 13:33N 69°14' E 017°59'8 8.1
2017-Feb-25 12:33N 69°08' E 017°43'1111.1
2017-Feb-25 11:33N 68°58' E 017°27'7 6.8
2017-Feb-25 10:33N 68°54' E 017°43'8 7.6
2017-Feb-25 09:33N 68°50' E 017°26'8 7.6
2017-Feb-25 08:33N 68°46' E 017°09'5 4.9
2017-Feb-25 07:33N 68°44' E 016°57'10 9.5
2017-Feb-25 06:33N 68°48' E 016°33'4 3.9
2017-Feb-25 05:33N 68°51' E 016°31'8 7.7
2017-Feb-25 04:33N 68°52' E 016°10'6 6.3
2017-Feb-25 03:32N 68°46' E 016°12'6 6.2
2017-Feb-25 02:33N 68°51' E 016°03'10 9.8
2017-Feb-25 01:33N 68°59' E 015°46'8 7.8
2017-Feb-25 00:33N 68°53' E 015°32'1010.4
2017-Feb-24 23:33N 68°43' E 015°26'6 6.0
2017-Feb-24 22:33N 68°37' E 015°18'10 9.7
2017-Feb-24 21:33N 68°28' E 015°12'1211.6
2017-Feb-24 20:33N 68°17' E 014°58'9 9.1
2017-Feb-24 19:33N 68°13' E 014°36'1 1.0
2017-Feb-24 18:32N 68°14' E 014°35'5 5.1
2017-Feb-24 17:33N 68°09' E 014°34'1110.8
2017-Feb-24 16:33N 67°59' E 014°41'9 9.3
2017-Feb-24 15:33N 67°49' E 014°36'7 6.7
2017-Feb-24 14:33N 67°43' E 014°42'1010.0
2017-Feb-24 13:33N 67°33' E 014°43'10 9.6
2017-Feb-24 12:33N 67°25' E 014°32'8 8.1
2017-Feb-24 11:33N 67°17' E 014°23'0 0.3
2017-Feb-24 10:33N 67°18' E 014°24'6 5.5
2017-Feb-24 09:33N 67°14' E 014°13'9 9.3
2017-Feb-24 08:33N 67°07' E 013°59'10 9.9
2017-Feb-24 07:33N 66°59' E 013°41'9 8.5
2017-Feb-24 06:33N 66°54' E 013°25'9 9.4
2017-Feb-24 05:33N 66°45' E 013°13'4 4.0
2017-Feb-24 04:33N 66°41' E 013°13'10 9.6
2017-Feb-24 03:33N 66°33' E 013°01'10 9.8
2017-Feb-24 02:33N 66°23' E 012°58'1110.6
2017-Feb-24 01:33N 66°13' E 012°53'1010.4
2017-Feb-24 00:33N 66°04' E 012°39'6 5.7
2017-Feb-23 23:33N 65°60' E 012°31'1010.4
2017-Feb-23 22:33N 65°50' E 012°22'1110.6
2017-Feb-23 21:33N 65°40' E 012°16'1110.5
2017-Feb-23 20:33N 65°29' E 012°12'1010.0
2017-Feb-23 19:33N 65°20' E 012°02'1110.7
2017-Feb-23 18:33N 65°10' E 011°51'1010.1
2017-Feb-23 17:33N 65°02' E 011°39'1010.5
2017-Feb-23 16:33N 64°54' E 011°22'9 9.1
2017-Feb-23 15:33N 64°48' E 011°07'1010.0
2017-Feb-23 14:33N 64°38' E 011°10'1010.0
2017-Feb-23 13:33N 64°31' E 011°27'4 3.9
2017-Feb-23 12:32N 64°28' E 011°30'0 0.0
2017-Feb-23 11:33N 64°28' E 011°30'0 0.0
2017-Feb-23 10:33N 64°28' E 011°30'0 0.0
2017-Feb-23 09:33N 64°28' E 011°30'0 0.0
2017-Feb-23 08:33N 64°28' E 011°30'0 0.0
2017-Feb-23 07:33N 64°28' E 011°30'0 0.0
2017-Feb-23 06:33N 64°28' E 011°30'0 0.0
2017-Feb-23 05:33N 64°28' E 011°30'0 0.0
2017-Feb-23 04:33N 64°28' E 011°30'0 0.0
2017-Feb-23 03:33N 64°28' E 011°30'0 0.0
2017-Feb-23 02:33N 64°28' E 011°30'0 0.0
2017-Feb-23 01:33N 64°28' E 011°30'0 0.0
2017-Feb-23 00:33N 64°28' E 011°30'0 0.0
2017-Feb-22 23:33N 64°28' E 011°30'0 0.0
2017-Feb-22 22:33N 64°28' E 011°30'0 0.0
2017-Feb-22 21:33N 64°28' E 011°30'0 0.0
2017-Feb-22 20:33N 64°28' E 011°30'0 0.0
2017-Feb-22 19:33N 64°28' E 011°30'0 0.0
2017-Feb-22 18:33N 64°28' E 011°30'0 0.0
2017-Feb-22 17:33N 64°28' E 011°30'0 0.0
2017-Feb-22 16:33N 64°28' E 011°30'0 0.0
2017-Feb-22 15:33N 64°28' E 011°30'0 0.0
2017-Feb-22 14:33N 64°28' E 011°30'0 0.0
2017-Feb-22 13:33N 64°28' E 011°30'0 0.0
2017-Feb-22 12:33N 64°28' E 011°30'0 0.0
2017-Feb-22 11:33N 64°28' E 011°30'0 0.0
2017-Feb-22 10:33N 64°28' E 011°30'0 0.0
2017-Feb-22 09:33N 64°28' E 011°30'0 0.0
2017-Feb-22 08:33N 64°28' E 011°30'0 0.0
2017-Feb-22 07:33N 64°28' E 011°30'0 0.0
2017-Feb-22 06:32N 64°28' E 011°30'0 0.0
2017-Feb-22 05:33N 64°28' E 011°30'0 0.0
2017-Feb-22 04:33N 64°28' E 011°30'0 0.0
2017-Feb-22 03:33N 64°28' E 011°30'0 0.0
2017-Feb-22 02:33N 64°28' E 011°30'0 0.0
2017-Feb-22 01:33N 64°28' E 011°30'0 0.0
2017-Feb-22 00:32N 64°28' E 011°30'0 0.0
2017-Feb-21 23:33N 64°28' E 011°30'0 0.0
2017-Feb-21 22:33N 64°28' E 011°30'0 0.0
2017-Feb-21 21:33N 64°28' E 011°30'5 4.9
2017-Feb-21 20:33N 64°29' E 011°19'10 9.5
2017-Feb-21 19:33N 64°35' E 011°03'5 5.4
2017-Feb-21 18:33N 64°32' E 010°52'0 0.0
2017-Feb-21 17:33N 64°32' E 010°52'7 7.1
2017-Feb-21 16:33N 64°38' E 011°01'1010.1
2017-Feb-21 15:33N 64°48' E 011°07'5 4.8
2017-Feb-21 14:33N 64°52' E 011°15'1 1.0
2017-Feb-21 13:33N 64°52' E 011°17'4 3.7
2017-Feb-21 12:33N 64°54' E 011°22'1111.2
2017-Feb-21 11:33N 65°02' E 011°41'1111.3
2017-Feb-21 10:33N 65°12' E 011°53'1111.3
2017-Feb-21 09:33N 65°22' E 012°05'1010.3
2017-Feb-21 08:33N 65°32' E 012°12'1111.4
2017-Feb-21 07:33N 65°44' E 012°17'1111.2
2017-Feb-21 06:33N 65°55' E 012°22'1111.0
2017-Feb-21 05:33N 66°04' E 012°38'1111.5
2017-Feb-21 04:33N 66°13' E 012°53'1111.1
2017-Feb-21 03:33N 66°24' E 012°58'1010.4
2017-Feb-21 02:33N 66°34' E 013°05'1111.1
2017-Feb-21 01:33N 66°45' E 013°13'9 9.3
2017-Feb-21 00:33N 66°50' E 013°33'9 9.2
2017-Feb-20 23:33N 66°59' E 013°35'1111.4
2017-Feb-20 22:33N 67°06' E 013°57'1211.5
2017-Feb-20 21:33N 67°15' E 014°15'6 5.9
2017-Feb-20 20:33N 67°20' E 014°23'1211.7
2017-Feb-20 19:33N 67°32' E 014°30'1211.5
2017-Feb-20 18:33N 67°43' E 014°31'1110.8
2017-Feb-20 17:33N 67°53' E 014°44'1111.1
2017-Feb-20 16:33N 68°01' E 015°02'1111.0
2017-Feb-20 15:32N 68°09' E 015°23'1111.3
2017-Feb-20 14:33N 68°16' E 015°47'1111.2
2017-Feb-20 13:32N 68°23' E 016°12'1111.2
2017-Feb-20 12:32N 68°26' E 016°41'1111.2
2017-Feb-20 11:33N 68°26' E 017°11'3 3.3
2017-Feb-20 10:33N 68°26' E 017°21'1111.2
2017-Feb-20 09:32N 68°26' E 016°50'1111.1
2017-Feb-20 08:32N 68°24' E 016°20'7 6.9
2017-Feb-20 07:33N 68°26' E 016°02'1010.0
2017-Feb-20 06:32N 68°34' E 016°21'5 5.3
2017-Feb-20 05:33N 68°36' E 016°33'1110.9
2017-Feb-20 04:33N 68°46' E 016°48'1111.1
2017-Feb-20 03:33N 68°55' E 017°04'1111.3
2017-Feb-20 02:33N 69°04' E 017°22'1111.2
2017-Feb-20 01:33N 69°09' E 017°50'9 9.2
2017-Feb-20 00:33N 69°18' E 017°58'1110.4
2017-Feb-19 23:33N 69°28' E 018°08'1211.5
2017-Feb-19 22:33N 69°33' E 018°38'1111.1
2017-Feb-19 21:33N 69°40' E 019°01'1010.5
2017-Feb-19 20:33N 69°48' E 019°22'1111.2
2017-Feb-19 19:33N 69°53' E 019°51'1110.9
2017-Feb-19 18:33N 69°59' E 020°17'1111.0
2017-Feb-19 17:33N 70°03' E 020°47'1110.7
2017-Feb-19 16:33N 70°11' E 021°05'1110.9
2017-Feb-19 15:33N 70°19' E 021°28'9 9.4
2017-Feb-19 14:33N 70°22' E 021°54'1211.7
2017-Feb-19 13:33N 70°17' E 022°25'1211.8
2017-Feb-19 12:33N 70°12' E 022°58'1211.7
2017-Feb-19 11:33N 70°02' E 023°14'4 3.8
2017-Feb-19 10:33N 69°59' E 023°20'1010.4
2017-Feb-19 09:33N 70°08' E 023°04'8 8.4
2017-Feb-19 08:33N 70°14' E 022°47'8 8.4
2017-Feb-19 07:33N 70°16' E 022°23'2 1.8
2017-Feb-19 06:33N 70°14' E 022°21'0 0.0
2017-Feb-19 05:33N 70°14' E 022°21'0 0.0
2017-Feb-19 04:33N 70°14' E 022°21'0 0.0
2017-Feb-19 03:33N 70°14' E 022°21'0 0.0
2017-Feb-19 02:33N 70°14' E 022°21'7 7.5
2017-Feb-19 01:33N 70°20' E 022°05'10 9.6
2017-Feb-19 00:33N 70°23' E 021°39'1010.4
2017-Feb-18 23:33N 70°16' E 021°16'1010.2
2017-Feb-18 22:32N 70°07' E 020°60'1010.1
2017-Feb-18 21:33N 70°01' E 020°36'1010.2
2017-Feb-18 20:33N 69°57' E 020°09'1110.5
2017-Feb-18 19:33N 69°51' E 019°44'1010.5
2017-Feb-18 18:33N 69°47' E 019°16'9 8.7
2017-Feb-18 17:33N 69°41' E 018°59'1 0.9
2017-Feb-18 16:33N 69°40' E 018°59'1211.4
2017-Feb-18 15:32N 69°32' E 018°34'1111.0
2017-Feb-18 14:33N 69°27' E 018°07'1110.8
2017-Feb-18 13:33N 69°16' E 017°58'3 3.1
2017-Feb-18 12:33N 69°13' E 017°60'1010.1
2017-Feb-18 11:33N 69°07' E 017°38'1111.2
2017-Feb-18 10:33N 68°56' E 017°27'10 9.7
2017-Feb-18 09:33N 68°47' E 017°16'6 5.7
2017-Feb-18 08:33N 68°44' E 017°02'1010.0
2017-Feb-18 07:33N 68°47' E 016°36'3 2.6
2017-Feb-18 06:33N 68°49' E 016°36'1110.8
2017-Feb-18 05:33N 68°56' E 016°12'1111.1
2017-Feb-18 04:32N 68°58' E 015°42'8 8.3
2017-Feb-18 03:34N 68°51' E 015°30'10 9.5
2017-Feb-18 02:33N 68°42' E 015°25'0 0.0
2017-Feb-18 01:32N 68°42' E 015°25'7 7.3
2017-Feb-18 00:33N 68°36' E 015°14'10 9.8
2017-Feb-17 23:34N 68°26' E 015°10'1010.3
2017-Feb-17 22:32N 68°17' E 014°58'9 9.2
2017-Feb-17 21:33N 68°13' E 014°35'1 1.2
2017-Feb-17 20:33N 68°13' E 014°33'1111.0
2017-Feb-17 19:33N 68°07' E 014°07'1111.2
2017-Feb-17 18:33N 68°04' E 013°39'4 4.2
2017-Feb-17 17:33N 68°08' E 013°34'1 0.9
2017-Feb-17 16:33N 68°08' E 013°37'4 4.2
2017-Feb-17 15:33N 68°04' E 013°32'5 5.2
2017-Feb-17 14:33N 67°59' E 013°33'1110.9
2017-Feb-17 13:33N 67°48' E 013°26'1110.6
2017-Feb-17 12:33N 67°38' E 013°20'1110.7
2017-Feb-17 11:33N 67°28' E 013°11'1110.9
2017-Feb-17 10:33N 67°17' E 013°04'1110.7
2017-Feb-17 09:33N 67°07' E 012°56'1110.8
2017-Feb-17 08:33N 66°56' E 012°50'1110.6
2017-Feb-17 07:33N 66°46' E 012°49'1010.4
2017-Feb-17 06:33N 66°36' E 012°41'6 6.5
2017-Feb-17 05:33N 66°30' E 012°46'6 6.4
2017-Feb-17 04:33N 66°23' E 012°47'1010.2
2017-Feb-17 03:33N 66°14' E 012°40'1111.3
2017-Feb-17 02:34N 66°02' E 012°38'5 4.7
2017-Feb-17 01:33N 65°59' E 012°30'1111.5
2017-Feb-17 00:33N 65°48' E 012°21'1211.7
2017-Feb-16 23:33N 65°37' E 012°14'1110.6
2017-Feb-16 22:33N 65°27' E 012°10'1111.2
2017-Feb-16 21:33N 65°17' E 011°58'1111.1
2017-Feb-16 20:33N 65°06' E 011°48'1110.8
2017-Feb-16 19:34N 64°58' E 011°33'1010.0
2017-Feb-16 18:33N 64°52' E 011°14'0 0.0
2017-Feb-16 17:33N 64°52' E 011°14'9 8.5
2017-Feb-16 16:32N 64°43' E 011°06'1010.5
2017-Feb-16 15:33N 64°35' E 011°19'9 8.6
2017-Feb-16 14:33N 64°27' E 011°30'0 0.2
2017-Feb-16 13:33N 64°28' E 011°30'0 0.0
2017-Feb-16 12:34N 64°28' E 011°30'0 0.0
2017-Feb-16 11:33N 64°28' E 011°30'0 0.0
2017-Feb-16 10:33N 64°28' E 011°30'0 0.0
2017-Feb-16 09:33N 64°28' E 011°30'0 0.0
2017-Feb-16 08:32N 64°28' E 011°30'0 0.0
2017-Feb-16 07:33N 64°28' E 011°30'0 0.0
2017-Feb-16 06:33N 64°28' E 011°30'0 0.0
2017-Feb-16 05:33N 64°28' E 011°30'0 0.0
2017-Feb-16 04:33N 64°28' E 011°30'0 0.0
2017-Feb-16 03:33N 64°28' E 011°30'0 0.0
2017-Feb-16 02:33N 64°28' E 011°30'0 0.0
2017-Feb-16 01:32N 64°28' E 011°30'0 0.0
2017-Feb-16 00:33N 64°28' E 011°30'0 0.0
2017-Feb-15 23:33N 64°28' E 011°30'0 0.0
2017-Feb-15 22:32N 64°28' E 011°30'0 0.0
2017-Feb-15 21:32N 64°28' E 011°30'0 0.0
2017-Feb-15 20:33N 64°28' E 011°30'  

Dump ship's entire track history